Time;durP1;ratioP1;P1;durP2;ratioP2;P2;SDS_P1;SDS_P2;PMS_P1;PMS_P2;Temp;Humidity;BMP_temperature;BMP_pressure;BME280_temperature;BME280_humidity;BME280_pressure;Samples;Min_cycle;Max_cycle;Signal;HPM_P1;HPM_P2
2022/09/21 00:01:05;;;;;;;0.95;0.93;;;9.30;99.90;;;;;;5072692;28;20222;-77
2022/09/21 00:03:32;;;;;;;0.50;0.40;;;9.40;99.90;;;;;;5072997;28;20184;-77
2022/09/21 00:06:02;;;;;;;0.50;0.40;;;9.30;99.90;;;;;;5073541;28;20221;-77
2022/09/21 00:08:29;;;;;;;0.50;0.40;;;9.30;99.90;;;;;;5073939;28;20225;-77
2022/09/21 00:10:58;;;;;;;0.50;0.40;;;9.20;99.90;;;;;;5072912;28;20571;-78
2022/09/21 00:13:27;;;;;;;0.50;0.40;;;9.10;99.90;;;;;;5072531;28;20207;-77
2022/09/21 00:15:54;;;;;;;0.50;0.40;;;9.10;99.90;;;;;;5072184;28;20256;-76
2022/09/21 00:18:21;;;;;;;0.50;0.40;;;9.00;99.90;;;;;;5073134;28;20196;-78
2022/09/21 00:20:48;;;;;;;0.50;0.40;;;9.00;99.90;;;;;;5072806;28;20203;-78
2022/09/21 00:23:15;;;;;;;0.50;0.40;;;8.90;99.90;;;;;;5072834;28;20199;-77
2022/09/21 00:25:42;;;;;;;0.50;0.40;;;8.90;99.90;;;;;;5073242;28;20219;-78
2022/09/21 00:28:11;;;;;;;1.92;1.73;;;8.90;99.90;;;;;;5073290;28;20220;-78
2022/09/21 00:30:38;;;;;;;0.50;0.40;;;8.90;99.90;;;;;;5073913;28;20199;-78
2022/09/21 00:33:05;;;;;;;1.15;1.08;;;9.00;99.90;;;;;;5074326;28;20623;-77
2022/09/21 00:35:32;;;;;;;0.50;0.40;;;9.00;99.90;;;;;;5072488;28;20770;-78
2022/09/21 00:38:01;;;;;;;0.50;0.40;;;9.10;99.90;;;;;;5073447;28;20203;-77
2022/09/21 00:40:28;;;;;;;0.50;0.40;;;9.10;99.90;;;;;;5073560;28;20201;-76
2022/09/21 00:43:10;;;;;;;0.50;0.40;;;9.10;99.90;;;;;;5073321;28;20709;-77
2022/09/21 00:45:38;;;;;;;0.50;0.40;;;9.10;99.90;;;;;;5072528;28;20223;-78
2022/09/21 00:48:06;;;;;;;0.50;0.40;;;9.10;99.90;;;;;;5073340;28;20646;-77
2022/09/21 00:50:35;;;;;;;0.50;0.40;;;9.10;99.90;;;;;;5072886;28;20287;-77
2022/09/21 00:53:04;;;;;;;0.50;0.40;;;9.20;99.90;;;;;;5073254;28;20201;-77
2022/09/21 00:55:36;;;;;;;0.50;0.40;;;9.20;99.90;;;;;;5072485;28;20229;-77
2022/09/21 00:58:07;;;;;;;0.50;0.40;;;9.20;99.90;;;;;;5072807;28;20201;-77
2022/09/21 01:00:34;;;;;;;0.50;0.40;;;9.20;99.90;;;;;;5077366;28;20186;-78
2022/09/21 01:03:03;;;;;;;0.50;0.40;;;9.30;99.90;;;;;;5077093;28;20249;-78
2022/09/21 01:05:30;;;;;;;0.50;0.40;;;9.30;99.90;;;;;;5077119;28;20230;-77
2022/09/21 01:08:00;;;;;;;0.50;0.40;;;9.40;99.90;;;;;;5076823;28;20197;-78
2022/09/21 01:10:32;;;;;;;0.50;0.40;;;9.40;99.90;;;;;;5077809;28;20586;-78
2022/09/21 01:13:12;;;;;;;0.50;0.40;;;9.40;99.90;;;;;;5078305;28;20176;-78
2022/09/21 01:15:46;;;;;;;0.50;0.40;;;9.30;99.90;;;;;;5078469;28;20212;-77
2022/09/21 01:18:21;;;;;;;0.50;0.40;;;9.20;99.90;;;;;;5078646;28;20828;-78
2022/09/21 01:21:17;;;;;;;0.50;0.40;;;9.20;99.90;;;;;;5078149;28;20402;-77
2022/09/21 01:24:03;;;;;;;0.50;0.40;;;9.20;99.90;;;;;;5079124;28;20542;-78
2022/09/21 01:26:47;;;;;;;0.50;0.40;;;9.20;99.90;;;;;;5078110;28;20228;-76
2022/09/21 01:29:21;;;;;;;0.50;0.45;;;9.30;99.90;;;;;;5078127;28;20207;-77
2022/09/21 01:31:54;;;;;;;0.50;0.40;;;9.30;99.90;;;;;;5077549;28;20205;-77
2022/09/21 01:34:28;;;;;;;1.30;1.20;;;9.40;99.90;;;;;;5078185;28;20204;-78
2022/09/21 01:36:58;;;;;;;2.35;2.25;;;9.30;99.90;;;;;;5078161;28;20204;-77
2022/09/21 01:39:27;;;;;;;0.50;0.40;;;9.30;99.90;;;;;;5076131;28;20824;-77
2022/09/21 01:41:56;;;;;;;0.50;0.40;;;9.20;99.90;;;;;;5057924;28;20201;-78
2022/09/21 01:44:32;;;;;;;0.50;0.40;;;9.20;99.90;;;;;;5057556;28;20209;-77
2022/09/21 01:47:00;;;;;;;0.50;0.40;;;9.10;99.90;;;;;;5057917;28;20181;-77
2022/09/21 01:49:33;;;;;;;0.50;0.40;;;9.00;99.90;;;;;;5058377;28;20583;-77
2022/09/21 01:52:06;;;;;;;0.50;0.40;;;9.00;99.90;;;;;;5057148;28;20205;-77
2022/09/21 01:54:37;;;;;;;0.50;0.40;;;8.90;99.90;;;;;;5057242;28;20211;-78
2022/09/21 01:57:14;;;;;;;0.50;0.40;;;8.90;99.90;;;;;;5057559;28;20367;-77
2022/09/21 01:59:50;;;;;;;0.50;0.40;;;8.90;99.90;;;;;;5057957;28;20227;-78
2022/09/21 02:02:22;;;;;;;0.50;0.40;;;8.80;99.90;;;;;;5057239;28;20377;-76
2022/09/21 02:04:49;;;;;;;0.50;0.40;;;8.90;99.90;;;;;;5057598;28;20220;-76
2022/09/21 02:07:17;;;;;;;0.50;0.40;;;8.80;99.90;;;;;;5057767;28;20206;-77
2022/09/21 02:09:46;;;;;;;0.50;0.40;;;8.70;99.90;;;;;;5057026;28;20706;-77
2022/09/21 02:12:13;;;;;;;0.50;0.40;;;8.70;99.90;;;;;;5057127;28;20684;-77
2022/09/21 02:14:40;;;;;;;0.50;0.40;;;8.70;99.90;;;;;;5056908;28;20283;-78
2022/09/21 02:17:19;;;;;;;0.50;0.40;;;8.60;99.90;;;;;;5057050;28;20307;-78
2022/09/21 02:19:53;;;;;;;0.50;0.40;;;8.60;99.90;;;;;;5057196;28;20288;-77
2022/09/21 02:22:30;;;;;;;0.50;0.40;;;8.60;99.90;;;;;;5057026;28;20227;-77
2022/09/21 02:25:07;;;;;;;0.50;0.40;;;8.60;99.90;;;;;;5056950;28;20231;-77
2022/09/21 02:27:39;;;;;;;1.90;1.80;;;8.50;99.90;;;;;;5057233;28;20302;-77
2022/09/21 02:30:09;;;;;;;0.50;0.40;;;8.50;99.90;;;;;;5056582;28;20207;-78
2022/09/21 02:32:49;;;;;;;0.50;0.40;;;8.50;99.90;;;;;;5055751;28;20179;-78
2022/09/21 02:35:23;;;;;;;0.50;0.40;;;8.50;99.90;;;;;;5055130;28;20221;-78
2022/09/21 02:37:55;;;;;;;0.70;0.70;;;8.40;99.90;;;;;;5054060;28;20715;-77
2022/09/21 02:40:29;;;;;;;0.50;0.40;;;8.40;99.90;;;;;;5054429;28;20203;-77
2022/09/21 02:43:00;;;;;;;0.50;0.40;;;8.30;99.90;;;;;;5054401;28;20205;-77
2022/09/21 02:45:31;;;;;;;0.50;0.50;;;8.30;99.90;;;;;;5054293;28;20226;-76
2022/09/21 02:48:03;;;;;;;0.50;0.40;;;8.20;99.90;;;;;;5054654;28;20609;-77
2022/09/21 02:50:35;;;;;;;1.00;0.75;;;8.30;99.90;;;;;;5054797;28;20228;-77
2022/09/21 02:53:05;;;;;;;0.50;0.40;;;8.30;99.90;;;;;;5054825;28;20200;-78
2022/09/21 02:55:33;;;;;;;0.50;0.40;;;8.30;99.90;;;;;;5054649;28;20627;-78
2022/09/21 02:58:04;;;;;;;0.50;0.40;;;8.30;99.90;;;;;;5054804;28;20276;-78
2022/09/21 03:00:31;;;;;;;0.50;0.40;;;8.30;99.90;;;;;;5054632;28;20279;-77
2022/09/21 03:02:59;;;;;;;0.50;0.40;;;8.20;99.90;;;;;;5054223;28;20200;-77
2022/09/21 03:05:27;;;;;;;0.50;0.40;;;8.20;99.90;;;;;;5053801;28;20278;-77
2022/09/21 03:07:54;;;;;;;0.50;0.40;;;8.10;99.90;;;;;;5054143;28;20201;-77
2022/09/21 03:10:20;;;;;;;0.50;0.40;;;8.10;99.90;;;;;;5055622;28;20310;-78
2022/09/21 03:12:47;;;;;;;0.50;0.47;;;8.10;99.90;;;;;;5054519;28;20601;-77
2022/09/21 03:15:15;;;;;;;0.50;0.40;;;8.10;99.90;;;;;;5053554;28;20710;-77
2022/09/21 03:17:42;;;;;;;0.50;0.40;;;8.00;99.90;;;;;;5054428;28;20291;-77
2022/09/21 03:20:10;;;;;;;0.50;0.40;;;8.00;99.90;;;;;;5053852;28;20275;-78
2022/09/21 03:22:37;;;;;;;0.50;0.40;;;8.00;99.90;;;;;;5053311;28;20288;-77
2022/09/21 03:25:05;;;;;;;0.50;0.50;;;8.10;99.90;;;;;;5052514;28;20311;-77
2022/09/21 03:27:32;;;;;;;0.50;0.40;;;8.10;99.90;;;;;;5053274;28;20226;-76
2022/09/21 03:29:59;;;;;;;0.50;0.40;;;8.10;99.90;;;;;;5052819;28;20231;-77
2022/09/21 03:32:26;;;;;;;0.50;0.40;;;7.90;99.90;;;;;;5053369;28;20301;-78
2022/09/21 03:34:52;;;;;;;0.50;0.40;;;7.80;99.90;;;;;;5052697;28;20216;-77
2022/09/21 03:37:21;;;;;;;0.50;0.40;;;7.70;99.90;;;;;;5052978;28;20208;-77
2022/09/21 03:39:47;;;;;;;0.50;0.40;;;7.70;99.90;;;;;;5052424;28;20191;-77
2022/09/21 03:42:14;;;;;;;0.50;0.40;;;7.60;99.90;;;;;;5053091;28;20267;-77
2022/09/21 03:44:41;;;;;;;0.50;0.40;;;7.60;99.90;;;;;;5052716;28;20223;-77
2022/09/21 03:47:08;;;;;;;0.50;0.40;;;7.60;99.90;;;;;;5052178;28;20718;-77
2022/09/21 03:49:35;;;;;;;0.50;0.40;;;7.60;99.90;;;;;;5052580;28;20215;-78
2022/09/21 03:52:02;;;;;;;0.70;0.70;;;7.50;99.90;;;;;;5052643;28;20195;-76
2022/09/21 03:54:31;;;;;;;0.50;0.40;;;7.50;99.90;;;;;;5052119;28;20203;-76
2022/09/21 03:56:57;;;;;;;0.50;0.40;;;7.50;99.90;;;;;;5055424;28;20284;-78
2022/09/21 03:59:24;;;;;;;0.50;0.40;;;7.40;99.90;;;;;;5052080;28;20199;-78
2022/09/21 04:01:51;;;;;;;0.50;0.40;;;7.40;99.90;;;;;;5051701;28;20198;-77
2022/09/21 04:04:18;;;;;;;0.50;0.40;;;7.40;99.90;;;;;;5051296;28;20239;-77
2022/09/21 04:06:45;;;;;;;0.50;0.40;;;7.30;99.90;;;;;;5052080;28;20872;-77
2022/09/21 04:09:12;;;;;;;0.50;0.40;;;7.30;99.90;;;;;;5051391;28;20212;-77
2022/09/21 04:11:41;;;;;;;0.50;0.40;;;7.30;99.90;;;;;;5051902;28;20295;-75
2022/09/21 04:14:08;;;;;;;0.50;0.40;;;7.30;99.90;;;;;;5051085;28;20191;-77
2022/09/21 04:16:35;;;;;;;0.50;0.40;;;7.30;99.90;;;;;;5051674;28;20256;-77
2022/09/21 04:19:02;;;;;;;0.50;0.40;;;7.30;99.90;;;;;;5051779;28;20599;-77
2022/09/21 04:21:28;;;;;;;0.50;0.40;;;7.20;99.90;;;;;;5052688;28;20193;-78
2022/09/21 04:23:55;;;;;;;0.60;0.50;;;7.20;99.90;;;;;;5051730;28;20564;-77
2022/09/21 04:26:25;;;;;;;0.50;0.40;;;7.20;99.90;;;;;;5051726;28;20219;-77
2022/09/21 04:28:54;;;;;;;0.70;0.70;;;7.20;99.90;;;;;;5051743;28;20202;-77
2022/09/21 04:31:21;;;;;;;0.50;0.40;;;7.20;99.90;;;;;;5052625;28;20212;-76
2022/09/21 04:33:49;;;;;;;0.50;0.40;;;7.20;99.90;;;;;;5050978;28;20675;-79
2022/09/21 04:36:16;;;;;;;0.82;0.82;;;7.20;99.90;;;;;;5052368;28;20238;-78
2022/09/21 04:38:43;;;;;;;0.50;0.40;;;7.20;99.90;;;;;;5053424;28;20196;-78
2022/09/21 04:41:10;;;;;;;0.50;0.40;;;7.20;99.90;;;;;;5053902;28;20199;-77
2022/09/21 04:43:37;;;;;;;0.50;0.40;;;7.20;99.90;;;;;;5052284;28;20218;-77
2022/09/21 04:46:10;;;;;;;0.50;0.40;;;7.10;99.90;;;;;;5051098;28;20214;-76
2022/09/21 04:48:37;;;;;;;0.50;0.40;;;7.10;99.90;;;;;;5051803;28;20618;-75
2022/09/21 04:51:05;;;;;;;0.50;0.40;;;7.00;99.90;;;;;;5050900;28;20226;-77
2022/09/21 04:53:32;;;;;;;0.50;0.43;;;7.10;99.90;;;;;;5051177;28;20691;-76
2022/09/21 04:55:58;;;;;;;0.50;0.40;;;7.10;99.90;;;;;;5050354;28;20223;-76
2022/09/21 04:58:25;;;;;;;0.50;0.40;;;7.10;99.90;;;;;;5051075;28;20191;-76
2022/09/21 05:00:54;;;;;;;0.50;0.40;;;7.10;99.90;;;;;;5051084;28;20219;-76
2022/09/21 05:03:22;;;;;;;0.50;0.45;;;7.10;99.90;;;;;;5050709;28;20201;-76
2022/09/21 05:05:50;;;;;;;0.50;0.40;;;7.00;99.90;;;;;;5050652;28;20221;-76
2022/09/21 05:10:01;;;;;;;0.50;0.50;;;7.10;99.90;;;;;;5050933;28;20195;-77
2022/09/21 05:11:04;;;;;;;0.50;0.40;;;7.10;99.90;;;;;;5049791;28;20223;-77
2022/09/21 05:13:31;;;;;;;0.50;0.40;;;7.10;99.90;;;;;;5051034;28;20197;-76
2022/09/21 05:15:57;;;;;;;0.50;0.40;;;7.10;99.90;;;;;;5050719;28;20793;-76
2022/09/21 05:18:26;;;;;;;0.50;0.40;;;7.20;99.90;;;;;;5050787;28;20278;-76
2022/09/21 05:20:54;;;;;;;0.50;0.40;;;7.10;99.90;;;;;;5050868;28;20199;-76
2022/09/21 05:23:20;;;;;;;0.50;0.40;;;7.10;99.90;;;;;;5050709;28;20198;-76
2022/09/21 05:25:48;;;;;;;0.50;0.40;;;7.10;99.90;;;;;;5050333;28;20246;-76
2022/09/21 05:28:15;;;;;;;0.50;0.40;;;7.10;99.90;;;;;;5050559;28;20213;-76
2022/09/21 05:30:44;;;;;;;0.50;0.40;;;7.20;99.90;;;;;;5050476;28;20219;-76
2022/09/21 05:33:16;;;;;;;0.50;0.40;;;7.20;99.90;;;;;;5049508;28;20209;-76
2022/09/21 05:35:54;;;;;;;0.50;0.40;;;7.20;99.90;;;;;;5053402;28;20367;-76
2022/09/21 05:38:21;;;;;;;0.50;0.40;;;7.20;99.90;;;;;;5050962;28;20293;-76
2022/09/21 05:40:49;;;;;;;0.50;0.40;;;7.20;99.90;;;;;;5051176;28;20194;-76
2022/09/21 05:43:16;;;;;;;0.60;0.60;;;7.30;99.90;;;;;;5050051;28;20205;-76
2022/09/21 05:45:45;;;;;;;0.50;0.40;;;7.40;99.90;;;;;;5052431;28;20229;-76
2022/09/21 05:48:17;;;;;;;0.50;0.40;;;7.50;99.90;;;;;;5053670;28;20200;-76
2022/09/21 05:50:56;;;;;;;0.50;0.40;;;7.60;99.90;;;;;;5053862;28;20209;-76
2022/09/21 05:53:48;;;;;;;0.50;0.40;;;7.60;99.90;;;;;;5053608;28;20693;-76
2022/09/21 05:56:31;;;;;;;0.50;0.40;;;7.70;99.90;;;;;;5053661;28;20214;-76
2022/09/21 05:59:10;;;;;;;0.50;0.40;;;7.70;99.90;;;;;;5053824;28;20183;-76
2022/09/21 06:01:50;;;;;;;0.52;0.52;;;7.80;99.90;;;;;;5052249;28;20181;-74
2022/09/21 06:04:18;;;;;;;0.50;0.40;;;7.90;99.90;;;;;;5053803;28;20184;-76
2022/09/21 06:06:46;;;;;;;0.50;0.40;;;8.00;99.90;;;;;;5053550;28;20815;-76
2022/09/21 06:09:13;;;;;;;0.50;0.40;;;8.00;99.90;;;;;;5054042;28;20250;-76
2022/09/21 06:11:40;;;;;;;0.50;0.40;;;8.10;99.90;;;;;;5053479;28;20212;-73
2022/09/21 06:14:07;;;;;;;0.50;0.40;;;8.10;99.90;;;;;;5052894;28;20289;-76
2022/09/21 06:16:37;;;;;;;0.50;0.40;;;8.30;99.90;;;;;;5053513;28;20225;-73
2022/09/21 06:19:05;;;;;;;0.50;0.40;;;8.30;99.90;;;;;;5054308;28;20193;-76
2022/09/21 06:21:31;;;;;;;0.50;0.40;;;8.50;99.90;;;;;;5054015;28;20201;-77
2022/09/21 06:24:00;;;;;;;0.50;0.50;;;8.60;99.90;;;;;;5053351;28;20204;-76
2022/09/21 06:26:28;;;;;;;0.50;0.40;;;8.70;99.90;;;;;;5053462;28;20223;-76
2022/09/21 06:28:55;;;;;;;0.50;0.40;;;8.90;99.90;;;;;;5053374;28;20193;-75
2022/09/21 06:31:22;;;;;;;0.50;0.40;;;9.00;99.90;;;;;;5053222;28;20228;-76
2022/09/21 06:33:49;;;;;;;0.50;0.40;;;9.20;99.90;;;;;;5052955;28;20223;-76
2022/09/21 06:36:17;;;;;;;5.47;5.18;;;9.40;99.90;;;;;;5052764;28;20221;-76
2022/09/21 06:38:44;;;;;;;0.50;0.40;;;10.50;99.90;;;;;;5052696;28;20209;-76
2022/09/21 06:41:13;;;;;;;0.50;0.40;;;12.00;99.90;;;;;;5053085;28;20244;-76
2022/09/21 06:43:40;;;;;;;0.50;0.40;;;13.20;99.90;;;;;;5053029;28;20198;-76
2022/09/21 06:46:07;;;;;;;0.50;0.40;;;14.20;99.90;;;;;;5052937;28;20471;-76
2022/09/21 06:48:34;;;;;;;0.50;0.40;;;15.00;99.90;;;;;;5052841;28;20524;-74
2022/09/21 06:51:02;;;;;;;0.50;0.40;;;15.40;99.90;;;;;;5052384;28;20476;-76
2022/09/21 06:53:31;;;;;;;0.50;0.40;;;16.20;99.90;;;;;;5052490;28;20433;-76
2022/09/21 06:56:01;;;;;;;0.50;0.40;;;17.30;99.90;;;;;;5051862;28;20473;-76
2022/09/21 06:58:30;;;;;;;0.50;0.40;;;18.50;99.90;;;;;;5052591;28;20452;-75
2022/09/21 07:00:57;;;;;;;0.50;0.40;;;20.00;99.90;;;;;;5052970;28;20483;-76
2022/09/21 07:03:24;;;;;;;0.50;0.30;;;21.30;99.90;;;;;;5052258;28;20544;-77
2022/09/21 07:05:51;;;;;;;0.50;0.30;;;21.70;99.90;;;;;;5052254;28;20463;-76
2022/09/21 07:08:18;;;;;;;0.50;0.40;;;21.30;99.90;;;;;;5052844;28;20969;-75
2022/09/21 07:10:44;;;;;;;1.37;1.00;;;20.80;99.90;;;;;;5052381;28;20580;-77
2022/09/21 07:13:11;;;;;;;0.50;0.30;;;20.20;99.90;;;;;;5052149;28;20437;-76
2022/09/21 07:15:39;;;;;;;0.50;0.40;;;19.60;99.90;;;;;;5052563;28;20465;-76
2022/09/21 07:18:11;;;;;;;0.50;0.40;;;19.20;99.90;;;;;;5052308;28;20536;-76
2022/09/21 07:20:39;;;;;;;0.50;0.40;;;18.70;99.90;;;;;;5052435;28;20418;-76
2022/09/21 07:23:10;;;;;;;0.60;0.50;;;18.20;99.90;;;;;;5052145;28;20449;-77
2022/09/21 07:25:38;;;;;;;0.50;0.30;;;17.80;99.90;;;;;;5051754;28;20453;-75
2022/09/21 07:28:05;;;;;;;0.50;0.40;;;17.70;99.90;;;;;;5052029;28;20473;-76
2022/09/21 07:30:32;;;;;;;0.50;0.30;;;17.70;99.90;;;;;;5052033;28;20477;-76
2022/09/21 07:33:00;;;;;;;0.50;0.40;;;17.90;99.90;;;;;;5051588;28;20453;-76
2022/09/21 07:35:27;;;;;;;0.50;0.40;;;18.00;99.90;;;;;;5051832;28;20463;-76
2022/09/21 07:37:55;;;;;;;1.53;1.23;;;17.90;99.90;;;;;;5051841;28;20972;-76
2022/09/21 07:40:22;;;;;;;0.50;0.40;;;17.80;99.90;;;;;;5051799;28;20441;-76
2022/09/21 07:42:49;;;;;;;0.50;0.30;;;17.80;99.90;;;;;;5051632;28;20456;-76
2022/09/21 07:45:16;;;;;;;0.50;0.40;;;17.60;99.90;;;;;;5051677;28;21053;-76
2022/09/21 07:47:43;;;;;;;0.50;0.30;;;18.20;99.90;;;;;;5051664;28;20447;-76
2022/09/21 07:50:11;;;;;;;0.50;0.30;;;18.20;99.90;;;;;;5051725;28;20469;-75
2022/09/21 07:52:38;;;;;;;0.60;0.50;;;18.60;99.90;;;;;;5051672;28;20443;-76
2022/09/21 07:55:07;;;;;;;0.50;0.33;;;20.00;99.90;;;;;;5050512;28;20473;-76
2022/09/21 08:00:19;;;;;;;0.50;0.33;;;23.00;99.90;;;;;;5051507;28;20770;-77
2022/09/21 08:02:45;;;;;;;0.50;0.30;;;24.90;90.00;;;;;;5051568;28;20451;-76
2022/09/21 08:05:14;;;;;;;3.97;1.47;;;26.40;86.40;;;;;;5050946;28;20485;-77
2022/09/21 08:07:40;;;;;;;0.50;0.30;;;27.50;78.90;;;;;;5050579;28;20448;-76
2022/09/21 08:10:08;;;;;;;0.50;0.40;;;28.40;68.00;;;;;;5050681;28;21022;-76
2022/09/21 08:12:35;;;;;;;0.50;0.30;;;28.20;68.20;;;;;;5051051;28;20528;-76
2022/09/21 08:15:02;;;;;;;0.50;0.30;;;28.50;68.20;;;;;;5050446;28;20464;-75
2022/09/21 08:17:29;;;;;;;0.50;0.30;;;29.20;62.50;;;;;;5050779;28;21025;-75
2022/09/21 08:19:56;;;;;;;0.50;0.40;;;29.10;60.10;;;;;;5050837;28;20445;-77
2022/09/21 08:22:24;;;;;;;0.50;0.30;;;29.50;57.60;;;;;;5050887;28;20524;-74
2022/09/21 08:24:51;;;;;;;0.50;0.30;;;30.10;58.80;;;;;;5051085;28;20607;-75
2022/09/21 08:27:19;;;;;;;0.50;0.30;;;30.40;59.30;;;;;;5051253;28;20441;-74
2022/09/21 08:29:46;;;;;;;0.50;0.30;;;30.70;55.40;;;;;;5050639;28;20438;-74
2022/09/21 08:32:12;;;;;;;0.50;0.50;;;30.30;56.50;;;;;;5051090;28;20485;-74
2022/09/21 08:34:39;;;;;;;0.50;0.40;;;30.70;55.70;;;;;;5050576;28;20437;-74
2022/09/21 08:37:06;;;;;;;0.50;0.30;;;31.10;57.40;;;;;;5050965;28;20552;-74
2022/09/21 08:39:36;;;;;;;0.50;0.30;;;32.20;55.30;;;;;;5050942;28;20448;-74
2022/09/21 08:42:21;;;;;;;0.50;0.30;;;32.40;51.60;;;;;;5050772;28;20441;-75
2022/09/21 08:44:53;;;;;;;0.50;0.30;;;32.70;52.00;;;;;;5050404;28;20430;-74
2022/09/21 08:47:28;;;;;;;0.50;0.30;;;32.90;53.10;;;;;;5050997;28;20425;-74
2022/09/21 08:49:59;;;;;;;0.50;0.30;;;32.40;51.30;;;;;;5051116;28;21001;-74
2022/09/21 08:52:26;;;;;;;0.50;0.30;;;33.10;54.50;;;;;;5051205;28;20855;-75
2022/09/21 08:54:57;;;;;;;0.50;0.30;;;33.50;51.10;;;;;;5050452;28;20487;-75
2022/09/21 08:57:29;;;;;;;0.57;0.57;;;33.10;52.80;;;;;;5051082;28;20463;-75
2022/09/21 08:59:55;;;;;;;0.50;0.30;;;33.50;52.70;;;;;;5051195;28;20786;-75
2022/09/21 09:02:46;;;;;;;0.50;0.30;;;33.50;51.50;;;;;;5050623;28;20894;-75
2022/09/21 09:05:38;;;;;;;0.43;0.30;;;34.30;51.30;;;;;;5050081;28;20460;-75
2022/09/21 09:08:19;;;;;;;0.60;0.50;;;33.70;51.00;;;;;;5051125;28;20497;-75
2022/09/21 09:10:56;;;;;;;0.90;0.70;;;33.80;51.30;;;;;;5050735;28;20483;-75
2022/09/21 09:14:05;;;;;;;0.90;0.90;;;33.30;47.90;;;;;;5052308;28;20417;-76
2022/09/21 09:16:44;;;;;;;0.50;0.30;;;32.10;50.40;;;;;;5050622;28;20469;-75
2022/09/21 09:19:20;;;;;;;0.50;0.30;;;32.50;52.40;;;;;;5052080;28;20457;-75
2022/09/21 09:21:47;;;;;;;1.10;1.10;;;33.30;51.50;;;;;;5055211;28;20441;-75
2022/09/21 09:24:19;;;;;;;0.50;0.30;;;34.10;48.90;;;;;;5054463;28;20942;-76
2022/09/21 09:26:51;;;;;;;0.50;0.30;;;34.40;48.60;;;;;;5054540;28;20536;-76
2022/09/21 09:29:28;;;;;;;0.50;0.30;;;34.70;49.30;;;;;;5054520;28;20934;-75
2022/09/21 09:31:58;;;;;;;0.50;0.30;;;34.80;47.70;;;;;;5054719;28;20456;-75
2022/09/21 09:34:30;;;;;;;0.50;0.40;;;34.90;48.10;;;;;;5053918;28;20437;-76
2022/09/21 09:36:59;;;;;;;0.50;0.30;;;35.30;47.20;;;;;;5054758;28;20431;-76
2022/09/21 09:39:29;;;;;;;0.50;0.30;;;35.70;45.60;;;;;;5054462;28;20447;-76
2022/09/21 09:42:22;;;;;;;0.50;0.30;;;35.60;46.40;;;;;;5054485;28;20448;-75
2022/09/21 09:45:20;;;;;;;0.50;0.30;;;35.30;47.20;;;;;;5054056;28;20524;-75
2022/09/21 09:48:02;;;;;;;0.50;0.30;;;36.20;46.00;;;;;;5047511;28;20490;-75
2022/09/21 09:50:32;;;;;;;0.47;0.30;;;35.90;45.30;;;;;;5054244;28;20448;-76
2022/09/21 09:53:04;;;;;;;0.50;0.43;;;35.90;43.90;;;;;;5055496;28;20464;-76
2022/09/21 09:55:37;;;;;;;0.50;0.30;;;35.40;42.50;;;;;;5054236;28;20476;-75
2022/09/21 09:58:07;;;;;;;0.50;0.30;;;34.50;43.80;;;;;;5055452;28;20425;-77
2022/09/21 10:00:35;;;;;;;0.50;0.30;;;34.10;46.30;;;;;;5055413;28;20847;-76
2022/09/21 10:03:01;;;;;;;0.60;0.40;;;33.90;45.40;;;;;;5054914;28;20437;-76
2022/09/21 10:05:33;;;;;;;1.43;1.43;;;34.00;46.50;;;;;;5054560;28;21121;-75
2022/09/21 10:08:00;;;;;;;0.50;0.30;;;33.90;43.80;;;;;;5054318;28;20958;-74
2022/09/21 10:10:35;;;;;;;0.50;0.30;;;32.50;44.60;;;;;;5053787;28;20945;-75
2022/09/21 10:13:16;;;;;;;0.50;0.30;;;30.20;45.90;;;;;;5054295;28;20513;-75
2022/09/21 10:15:49;;;;;;;0.50;0.30;;;28.30;48.80;;;;;;5053203;28;20463;-75
2022/09/21 10:18:20;;;;;;;0.53;0.40;;;27.70;51.10;;;;;;5053846;28;20459;-76
2022/09/21 10:20:55;;;;;;;0.60;0.50;;;28.60;50.30;;;;;;5054337;28;20441;-76
2022/09/21 10:23:23;;;;;;;0.50;0.30;;;30.40;51.30;;;;;;5054546;28;20425;-75
2022/09/21 10:25:58;;;;;;;0.50;0.30;;;30.80;48.20;;;;;;5053570;28;20460;-77
2022/09/21 10:28:27;;;;;;;0.50;0.30;;;29.70;47.00;;;;;;5053436;28;20440;-76
2022/09/21 10:31:10;;;;;;;0.50;0.30;;;27.90;47.70;;;;;;5052463;28;20449;-76
2022/09/21 10:33:49;;;;;;;0.50;0.40;;;26.10;50.80;;;;;;5053733;28;20425;-75
2022/09/21 10:36:30;;;;;;;0.50;0.40;;;24.60;52.00;;;;;;5053493;28;20461;-76
2022/09/21 10:39:27;;;;;;;0.50;0.40;;;23.30;53.90;;;;;;5053282;28;20438;-76
2022/09/21 10:42:02;;;;;;;0.50;0.40;;;22.20;55.70;;;;;;5053076;28;20413;-76
2022/09/21 10:44:38;;;;;;;0.50;0.30;;;22.00;58.50;;;;;;5052893;28;20429;-75
2022/09/21 10:47:18;;;;;;;0.50;0.40;;;22.10;63.30;;;;;;5053079;28;20523;-76
2022/09/21 10:49:49;;;;;;;0.50;0.40;;;23.70;61.70;;;;;;5053074;28;20448;-76
2022/09/21 10:52:18;;;;;;;0.50;0.30;;;25.70;61.10;;;;;;5053338;28;20473;-77
2022/09/21 10:54:47;;;;;;;0.50;0.30;;;26.90;53.00;;;;;;5052886;28;20449;-76
2022/09/21 10:57:18;;;;;;;0.50;0.30;;;27.50;51.80;;;;;;5053585;28;20463;-76
2022/09/21 10:59:46;;;;;;;0.50;0.30;;;28.60;50.50;;;;;;5054057;28;20424;-76
2022/09/21 11:02:37;;;;;;;0.50;0.30;;;30.00;49.70;;;;;;5053470;28;20859;-76
2022/09/21 11:05:13;;;;;;;0.50;0.30;;;30.70;47.50;;;;;;5053277;28;20469;-76
2022/09/21 11:07:45;;;;;;;0.50;0.40;;;30.60;45.00;;;;;;5052272;28;20474;-75
2022/09/21 11:10:19;;;;;;;0.50;0.30;;;30.00;45.30;;;;;;5052796;28;20463;-76
2022/09/21 11:12:55;;;;;;;2.27;2.00;;;29.10;45.70;;;;;;5052777;28;21005;-75
2022/09/21 11:15:33;;;;;;;0.50;0.40;;;29.50;45.30;;;;;;5052349;28;20519;-76
2022/09/21 11:18:06;;;;;;;0.50;0.40;;;29.80;45.90;;;;;;5052396;28;20811;-76
2022/09/21 11:20:41;;;;;;;0.50;0.30;;;30.20;45.20;;;;;;5052800;28;20418;-76
2022/09/21 11:23:21;;;;;;;0.50;0.30;;;30.20;45.20;;;;;;5053394;28;20760;-77
2022/09/21 11:25:56;;;;;;;0.50;0.30;;;30.70;46.60;;;;;;5052593;28;20457;-76
2022/09/21 11:28:29;;;;;;;0.50;0.30;;;28.90;44.20;;;;;;5052628;28;20845;-76
2022/09/21 11:31:23;;;;;;;0.50;0.30;;;27.70;45.90;;;;;;5052002;28;21004;-76
2022/09/21 11:34:12;;;;;;;0.50;0.30;;;26.50;48.10;;;;;;5051233;28;20452;-76
2022/09/21 11:36:49;;;;;;;0.50;0.30;;;25.50;49.80;;;;;;5034837;28;20465;-75
2022/09/21 11:39:25;;;;;;;0.50;0.40;;;24.20;50.40;;;;;;5052004;28;20421;-76
2022/09/21 11:42:03;;;;;;;0.50;0.40;;;23.80;53.90;;;;;;5050723;28;20413;-76
2022/09/21 11:44:49;;;;;;;0.50;0.40;;;23.40;56.30;;;;;;5051510;28;20437;-75
2022/09/21 11:47:37;;;;;;;0.50;0.30;;;22.90;55.00;;;;;;5052387;28;20417;-77
2022/09/21 11:50:37;;;;;;;0.70;0.53;;;22.50;56.90;;;;;;5052116;28;20425;-76
2022/09/21 11:53:24;;;;;;;0.50;0.30;;;22.00;54.80;;;;;;5051504;28;20575;-77
2022/09/21 11:56:22;;;;;;;0.50;0.30;;;22.10;54.80;;;;;;5051154;28;20461;-77
2022/09/21 11:58:56;;;;;;;0.50;0.30;;;23.40;56.10;;;;;;5051565;28;20441;-77
2022/09/21 12:01:43;;;;;;;0.50;0.30;;;24.40;54.40;;;;;;5051822;28;20988;-76
2022/09/21 12:04:28;;;;;;;0.50;0.30;;;25.40;55.70;;;;;;5051396;28;20429;-77
2022/09/21 12:07:06;;;;;;;6.40;1.63;;;26.00;52.00;;;;;;5051517;28;20552;-76
2022/09/21 12:09:52;;;;;;;0.50;0.30;;;25.10;51.80;;;;;;5051491;28;20421;-76
2022/09/21 12:12:22;;;;;;;0.50;0.30;;;26.30;50.40;;;;;;5051628;28;20481;-77
2022/09/21 12:15:01;;;;;;;0.50;0.30;;;27.50;51.30;;;;;;5050854;28;20441;-78
2022/09/21 12:17:37;;;;;;;0.50;0.30;;;28.00;48.60;;;;;;5052077;28;20837;-76
2022/09/21 12:20:17;;;;;;;0.50;0.30;;;28.50;48.50;;;;;;5052517;28;20531;-76
2022/09/21 12:22:47;;;;;;;0.50;0.40;;;29.80;50.00;;;;;;5052502;28;20417;-77
2022/09/21 12:25:17;;;;;;;0.50;0.30;;;30.40;46.30;;;;;;5051965;28;20556;-77
2022/09/21 12:27:49;;;;;;;0.50;0.30;;;30.80;46.70;;;;;;5052769;28;20443;-76
2022/09/21 12:30:19;;;;;;;0.50;0.30;;;31.60;46.40;;;;;;5052030;28;20873;-77
2022/09/21 12:32:54;;;;;;;0.50;0.30;;;31.70;44.50;;;;;;5051834;28;20503;-76
2022/09/21 12:35:28;;;;;;;0.50;0.30;;;31.30;46.50;;;;;;5052065;28;20460;-77
2022/09/21 12:37:59;;;;;;;0.50;0.50;;;31.40;45.60;;;;;;5052864;28;20418;-77
2022/09/21 12:40:33;;;;;;;0.50;0.30;;;31.20;44.50;;;;;;5052504;28;20870;-77
2022/09/21 12:43:08;;;;;;;0.50;0.40;;;30.60;44.80;;;;;;5051940;28;20454;-76
2022/09/21 12:45:39;;;;;;;0.50;0.30;;;30.90;45.50;;;;;;5052190;28;20456;-76
2022/09/21 12:48:11;;;;;;;0.50;0.40;;;31.00;44.40;;;;;;5052177;28;20443;-76
2022/09/21 12:50:47;;;;;;;0.50;0.30;;;30.90;45.60;;;;;;5052443;28;20942;-77
2022/09/21 12:53:18;;;;;;;0.50;0.30;;;31.60;47.20;;;;;;5051751;28;20515;-77
2022/09/21 12:55:52;;;;;;;0.50;0.30;;;31.90;46.20;;;;;;5055670;28;20507;-76
2022/09/21 12:58:31;;;;;;;0.50;0.30;;;30.50;46.50;;;;;;5055688;28;20444;-77
2022/09/21 13:01:05;;;;;;;0.50;0.30;;;29.40;47.80;;;;;;5056124;28;20472;-77
2022/09/21 13:03:42;;;;;;;0.50;0.40;;;28.40;48.30;;;;;;5057361;28;20536;-78
2022/09/21 13:06:30;;;;;;;0.50;0.40;;;27.50;51.50;;;;;;5055944;28;20469;-77
2022/09/21 13:09:01;;;;;;;0.50;0.30;;;26.60;51.00;;;;;;5055497;28;20432;-76
2022/09/21 13:11:28;;;;;;;0.50;0.50;;;25.70;53.60;;;;;;5055521;28;20440;-76
2022/09/21 13:14:00;;;;;;;0.50;0.30;;;25.20;54.90;;;;;;5054930;28;20447;-76
2022/09/21 13:16:29;;;;;;;0.50;0.40;;;24.50;56.30;;;;;;5055316;28;20463;-76
2022/09/21 13:18:59;;;;;;;0.50;0.30;;;24.00;58.30;;;;;;5054967;28;20447;-76